Time;durP1;ratioP1;P1;durP2;ratioP2;P2;SDS_P1;SDS_P2;PMS_P1;PMS_P2;Temp;Humidity;BMP_temperature;BMP_pressure;BME280_temperature;BME280_humidity;BME280_pressure;Samples;Min_cycle;Max_cycle;Signal;HPM_P1;HPM_P2
2021/01/23 00:01:22;;;;;;;1.88;0.60;;;;;;;;;;6301242;22;20412;-78
2021/01/23 00:03:48;;;;;;;0.70;0.52;;;;;;;;;;6300722;22;20026;-78
2021/01/23 00:06:14;;;;;;;0.95;0.70;;;;;;;;;;6299853;22;20388;-78
2021/01/23 00:08:40;;;;;;;1.02;0.82;;;;;;;;;;6273677;22;20110;-76
2021/01/23 00:11:06;;;;;;;1.00;0.80;;;;;;;;;;6273813;22;20068;-76
2021/01/23 00:13:32;;;;;;;1.92;0.73;;;;;;;;;;6300421;22;20010;-78
2021/01/23 00:15:58;;;;;;;0.70;0.60;;;;;;;;;;6300004;22;20202;-78
2021/01/23 00:18:24;;;;;;;0.90;0.70;;;;;;;;;;6300308;22;20125;-76
2021/01/23 00:20:51;;;;;;;1.23;0.80;;;;;;;;;;6271575;22;20007;-78
2021/01/23 00:23:17;;;;;;;0.75;0.60;;;;;;;;;;6271413;22;20018;-77
2021/01/23 00:25:43;;;;;;;2.45;0.80;;;;;;;;;;6271716;22;19999;-77
2021/01/23 00:28:09;;;;;;;0.70;0.70;;;;;;;;;;6300670;22;20011;-76
2021/01/23 00:30:35;;;;;;;0.90;0.60;;;;;;;;;;6300846;22;20441;-75
2021/01/23 00:33:01;;;;;;;1.15;1.00;;;;;;;;;;6301100;22;20106;-75
2021/01/23 00:35:27;;;;;;;1.33;0.90;;;;;;;;;;6299810;22;20509;-75
2021/01/23 00:37:53;;;;;;;0.70;0.70;;;;;;;;;;6300901;22;20082;-76
2021/01/23 00:40:20;;;;;;;0.93;0.80;;;;;;;;;;6300407;22;20000;-75
2021/01/23 00:42:46;;;;;;;1.08;0.80;;;;;;;;;;6299986;22;20078;-76
2021/01/23 00:45:12;;;;;;;1.20;0.70;;;;;;;;;;6272634;22;20003;-75
2021/01/23 00:47:38;;;;;;;1.50;0.65;;;;;;;;;;6273318;22;19999;-74
2021/01/23 00:50:05;;;;;;;0.80;0.77;;;;;;;;;;6273235;22;20026;-77
2021/01/23 00:52:31;;;;;;;0.60;0.60;;;;;;;;;;6272341;22;20078;-75
2021/01/23 00:54:57;;;;;;;1.27;0.80;;;;;;;;;;6299515;22;20508;-74
2021/01/23 00:57:23;;;;;;;2.45;0.65;;;;;;;;;;6300115;22;20010;-75
2021/01/23 00:59:49;;;;;;;1.13;0.60;;;;;;;;;;6300055;22;20419;-76
2021/01/23 01:02:15;;;;;;;0.95;0.60;;;;;;;;;;6272170;22;20007;-75
2021/01/23 01:04:41;;;;;;;0.68;0.60;;;;;;;;;;6272076;22;20007;-76
2021/01/23 01:07:07;;;;;;;1.02;0.70;;;;;;;;;;6273276;22;20003;-76
2021/01/23 01:09:33;;;;;;;2.00;0.80;;;;;;;;;;6300479;22;20021;-76
2021/01/23 01:11:59;;;;;;;1.02;0.75;;;;;;;;;;6299967;22;20071;-75
2021/01/23 01:14:25;;;;;;;1.45;0.60;;;;;;;;;;6272506;22;20060;-76
2021/01/23 01:16:51;;;;;;;0.50;0.50;;;;;;;;;;6300183;22;20402;-76
2021/01/23 01:19:17;;;;;;;1.95;0.70;;;;;;;;;;6300023;22;20013;-74
2021/01/23 01:21:43;;;;;;;1.67;0.70;;;;;;;;;;6272984;22;20035;-76
2021/01/23 01:24:09;;;;;;;0.70;0.70;;;;;;;;;;6301168;22;20513;-76
2021/01/23 01:26:35;;;;;;;1.23;0.80;;;;;;;;;;6302164;22;20002;-76
2021/01/23 01:29:01;;;;;;;1.75;0.80;;;;;;;;;;6276382;22;19999;-76
2021/01/23 01:31:27;;;;;;;1.98;0.90;;;;;;;;;;6303576;22;20023;-74
2021/01/23 01:33:53;;;;;;;1.88;1.10;;;;;;;;;;6303511;22;20003;-76
2021/01/23 01:36:19;;;;;;;2.17;1.05;;;;;;;;;;6275236;22;20017;-76
2021/01/23 01:38:45;;;;;;;1.25;0.95;;;;;;;;;;6276373;22;20007;-75
2021/01/23 01:41:11;;;;;;;2.38;1.20;;;;;;;;;;6303296;22;20524;-76
2021/01/23 01:43:37;;;;;;;1.75;1.10;;;;;;;;;;6276047;22;20011;-76
2021/01/23 01:46:04;;;;;;;3.58;1.27;;;;;;;;;;6302922;22;20006;-76
2021/01/23 01:48:30;;;;;;;1.83;1.10;;;;;;;;;;6303320;22;20066;-75
2021/01/23 01:50:56;;;;;;;2.67;1.30;;;;;;;;;;6303721;22;20111;-76
2021/01/23 01:53:22;;;;;;;1.77;1.30;;;;;;;;;;6276182;22;20015;-75
2021/01/23 01:55:49;;;;;;;3.17;1.30;;;;;;;;;;6302841;22;19999;-75
2021/01/23 01:58:15;;;;;;;1.95;1.55;;;;;;;;;;6303992;22;20509;-76
2021/01/23 02:00:42;;;;;;;2.40;1.50;;;;;;;;;;6275786;22;20090;-76
2021/01/23 02:03:27;;;;;;;2.90;1.52;;;;;;;;;;6270402;22;20006;-76
2021/01/23 02:05:56;;;;;;;2.17;1.60;;;;;;;;;;6275187;22;20646;-75
2021/01/23 02:08:28;;;;;;;2.33;1.65;;;;;;;;;;6276024;22;20003;-75
2021/01/23 02:11:07;;;;;;;2.83;1.83;;;;;;;;;;6275619;22;20004;-75
2021/01/23 02:13:50;;;;;;;2.30;1.35;;;;;;;;;;6276308;22;20090;-76
2021/01/23 02:16:18;;;;;;;1.90;1.40;;;;;;;;;;6275754;22;20003;-74
2021/01/23 02:18:50;;;;;;;2.55;1.60;;;;;;;;;;6275969;22;20424;-76
2021/01/23 02:21:35;;;;;;;3.70;1.80;;;;;;;;;;6275906;22;20014;-76
2021/01/23 02:24:03;;;;;;;3.10;2.20;;;;;;;;;;6275974;22;20400;-75
2021/01/23 02:26:40;;;;;;;3.17;2.28;;;;;;;;;;6302620;22;20007;-74
2021/01/23 02:29:08;;;;;;;6.00;2.90;;;;;;;;;;6275880;22;20031;-76
2021/01/23 02:31:34;;;;;;;;;;;;;;;;;;6276550;22;20015;-76
2021/01/23 02:34:01;;;;;;;5.03;3.47;;;;;;;;;;6275709;22;20319;-75
2021/01/23 02:36:28;;;;;;;4.90;3.47;;;;;;;;;;6301842;22;19999;-75
2021/01/23 02:38:54;;;;;;;6.78;3.90;;;;;;;;;;6273784;22;20086;-76
2021/01/23 02:41:20;;;;;;;5.28;3.90;;;;;;;;;;6301940;22;20003;-76
2021/01/23 02:43:46;;;;;;;9.63;4.68;;;;;;;;;;6301509;22;20037;-75
2021/01/23 02:46:13;;;;;;;6.25;4.63;;;;;;;;;;6273678;22;20504;-75
2021/01/23 02:48:39;;;;;;;5.05;3.70;;;;;;;;;;6301231;22;20008;-75
2021/01/23 02:51:14;;;;;;;4.47;2.80;;;;;;;;;;6301603;22;20090;-75
2021/01/23 02:53:41;;;;;;;3.20;2.20;;;;;;;;;;6274026;22;20090;-77
2021/01/23 02:56:08;;;;;;;3.72;2.63;;;;;;;;;;6273640;22;20003;-75
2021/01/23 02:58:35;;;;;;;5.28;2.85;;;;;;;;;;6274122;22;20720;-75
2021/01/23 03:01:02;;;;;;;4.35;2.60;;;;;;;;;;6302129;22;19999;-76
2021/01/23 03:03:30;;;;;;;4.72;2.78;;;;;;;;;;6304846;22;20030;-75
2021/01/23 03:06:00;;;;;;;3.40;2.45;;;;;;;;;;6304248;22;19999;-76
2021/01/23 03:08:26;;;;;;;5.38;3.15;;;;;;;;;;6277547;22;20340;-75
2021/01/23 03:10:52;;;;;;;3.30;2.40;;;;;;;;;;6304712;22;20014;-76
2021/01/23 03:13:18;;;;;;;3.72;2.30;;;;;;;;;;6305025;22;20026;-75
2021/01/23 03:15:44;;;;;;;3.22;2.20;;;;;;;;;;6277195;22;20436;-78
2021/01/23 03:18:10;;;;;;;3.17;2.22;;;;;;;;;;6277803;22;20003;-78
2021/01/23 03:20:36;;;;;;;3.05;1.98;;;;;;;;;;6277649;22;20030;-76
2021/01/23 03:23:03;;;;;;;4.13;2.15;;;;;;;;;;6277578;22;20014;-76
2021/01/23 03:25:30;;;;;;;4.15;1.85;;;;;;;;;;6304685;22;19995;-76
2021/01/23 03:27:57;;;;;;;3.63;1.88;;;;;;;;;;6277578;22;20002;-76
2021/01/23 03:30:23;;;;;;;2.30;1.75;;;;;;;;;;6304601;22;20032;-78
2021/01/23 03:32:49;;;;;;;2.28;1.50;;;;;;;;;;6304855;22;20006;-78
2021/01/23 03:35:16;;;;;;;2.40;1.67;;;;;;;;;;6277150;22;20004;-78
2021/01/23 03:37:42;;;;;;;2.35;1.50;;;;;;;;;;6277449;22;19999;-78
2021/01/23 03:40:09;;;;;;;2.40;1.50;;;;;;;;;;6276968;22;20498;-78
2021/01/23 03:42:35;;;;;;;3.22;1.50;;;;;;;;;;6277242;22;19999;-78
2021/01/23 03:45:01;;;;;;;3.47;1.42;;;;;;;;;;6276819;22;20058;-78
2021/01/23 03:47:28;;;;;;;1.98;1.30;;;;;;;;;;6304405;22;19992;-77
2021/01/23 03:49:54;;;;;;;2.70;1.52;;;;;;;;;;6277263;22;20029;-77
2021/01/23 03:52:20;;;;;;;2.15;1.55;;;;;;;;;;6277378;22;19999;-77
2021/01/23 03:54:46;;;;;;;2.97;1.58;;;;;;;;;;6276779;22;20003;-77
2021/01/23 03:57:12;;;;;;;2.05;1.45;;;;;;;;;;6277356;22;20010;-77
2021/01/23 03:59:38;;;;;;;3.13;1.50;;;;;;;;;;6276827;22;20682;-77
2021/01/23 04:02:05;;;;;;;2.17;1.50;;;;;;;;;;6275951;22;20435;-78
2021/01/23 04:04:31;;;;;;;5.70;1.50;;;;;;;;;;6273503;22;20007;-77
2021/01/23 04:06:57;;;;;;;2.10;1.20;;;;;;;;;;6274817;22;20078;-77
2021/01/23 04:09:24;;;;;;;1.58;1.10;;;;;;;;;;6301851;22;20007;-75
2021/01/23 04:11:50;;;;;;;5.43;1.50;;;;;;;;;;6273031;22;20003;-75
2021/01/23 04:14:16;;;;;;;3.00;1.20;;;;;;;;;;6300913;22;20011;-75
2021/01/23 04:16:45;;;;;;;2.50;1.30;;;;;;;;;;6300679;22;20048;-76
2021/01/23 04:19:11;;;;;;;3.42;1.60;;;;;;;;;;6273955;22;20304;-76
2021/01/23 04:21:37;;;;;;;2.63;1.23;;;;;;;;;;6273906;22;20042;-76
2021/01/23 04:24:03;;;;;;;2.72;1.67;;;;;;;;;;6273417;22;20440;-76
2021/01/23 04:26:29;;;;;;;2.70;1.70;;;;;;;;;;6300299;22;20297;-76
2021/01/23 04:28:55;;;;;;;2.40;1.50;;;;;;;;;;6301313;22;20003;-76
2021/01/23 04:31:22;;;;;;;2.50;1.50;;;;;;;;;;6273485;22;19999;-76
2021/01/23 04:33:48;;;;;;;2.20;1.42;;;;;;;;;;6274015;22;20052;-76
2021/01/23 04:36:14;;;;;;;2.35;1.30;;;;;;;;;;6273135;22;20030;-76
2021/01/23 04:38:40;;;;;;;2.90;1.13;;;;;;;;;;6300980;22;20552;-76
2021/01/23 04:41:06;;;;;;;1.95;1.15;;;;;;;;;;6301209;22;20432;-76
2021/01/23 04:43:32;;;;;;;1.60;1.15;;;;;;;;;;6301311;22;20007;-77
2021/01/23 04:45:58;;;;;;;2.20;1.33;;;;;;;;;;6300626;22;20023;-76
2021/01/23 04:48:24;;;;;;;1.70;1.00;;;;;;;;;;6273752;22;20063;-76
2021/01/23 04:50:50;;;;;;;1.77;1.05;;;;;;;;;;6273805;22;20003;-75
2021/01/23 04:53:16;;;;;;;3.95;1.48;;;;;;;;;;6273769;22;20644;-77
2021/01/23 04:55:46;;;;;;;2.33;1.40;;;;;;;;;;6300198;22;20070;-77
2021/01/23 04:58:12;;;;;;;1.65;1.20;;;;;;;;;;6300803;22;20074;-75
2021/01/23 05:00:38;;;;;;;3.03;1.38;;;;;;;;;;6273027;22;20064;-75
2021/01/23 05:03:05;;;;;;;2.38;1.17;;;;;;;;;;6273640;22;20007;-77
2021/01/23 05:05:31;;;;;;;1.80;1.23;;;;;;;;;;6300235;22;20090;-77
2021/01/23 05:08:06;;;;;;;1.83;1.30;;;;;;;;;;6301220;22;19995;-76
2021/01/23 05:10:33;;;;;;;1.88;1.23;;;;;;;;;;6273248;22;20006;-76
2021/01/23 05:13:00;;;;;;;2.22;1.38;;;;;;;;;;6300802;22;19999;-76
2021/01/23 05:15:29;;;;;;;2.33;1.20;;;;;;;;;;6300159;22;19996;-77
2021/01/23 05:17:56;;;;;;;1.80;1.30;;;;;;;;;;6300856;22;20045;-76
2021/01/23 05:20:41;;;;;;;1.77;1.30;;;;;;;;;;6273600;22;20012;-76
2021/01/23 05:23:14;;;;;;;2.97;1.58;;;;;;;;;;6273153;22;20007;-75
2021/01/23 05:25:41;;;;;;;2.40;1.58;;;;;;;;;;6272910;22;20348;-78
2021/01/23 05:28:09;;;;;;;2.23;1.43;;;;;;;;;;6273965;22;19999;-75
2021/01/23 05:30:38;;;;;;;2.30;1.60;;;;;;;;;;6272975;22;20007;-75
2021/01/23 05:33:05;;;;;;;3.40;1.75;;;;;;;;;;6273623;22;20000;-76
2021/01/23 05:35:31;;;;;;;2.00;1.30;;;;;;;;;;6272717;22;20088;-79
2021/01/23 05:37:57;;;;;;;3.55;1.38;;;;;;;;;;6273632;22;19999;-76
2021/01/23 05:40:30;;;;;;;1.88;1.20;;;;;;;;;;6300681;22;20000;-77
2021/01/23 05:42:56;;;;;;;2.83;1.73;;;;;;;;;;6300814;22;20006;-76
2021/01/23 05:45:22;;;;;;;3.25;1.98;;;;;;;;;;6272568;22;20044;-76
2021/01/23 05:47:48;;;;;;;5.35;3.13;;;;;;;;;;6273202;22;20007;-77
2021/01/23 05:50:14;;;;;;;4.75;3.30;;;;;;;;;;6273743;22;20048;-75
2021/01/23 05:52:40;;;;;;;5.20;3.13;;;;;;;;;;6300839;22;20023;-76
2021/01/23 05:55:07;;;;;;;4.45;2.40;;;;;;;;;;6300643;22;20006;-75
2021/01/23 05:57:36;;;;;;;4.25;2.47;;;;;;;;;;6273240;22;20013;-76
2021/01/23 06:00:03;;;;;;;3.60;2.30;;;;;;;;;;6272965;22;20014;-76
2021/01/23 06:02:29;;;;;;;4.20;2.22;;;;;;;;;;6273234;22;20053;-75
2021/01/23 06:04:56;;;;;;;3.40;2.30;;;;;;;;;;6300039;22;20590;-76
2021/01/23 06:07:41;;;;;;;2.72;1.90;;;;;;;;;;6273171;22;19999;-76
2021/01/23 06:10:22;;;;;;;2.85;1.88;;;;;;;;;;6301170;22;19999;-78
2021/01/23 06:12:48;;;;;;;4.05;2.60;;;;;;;;;;6302697;22;20003;-78
2021/01/23 06:15:33;;;;;;;3.35;2.40;;;;;;;;;;6274498;22;20011;-75
2021/01/23 06:17:59;;;;;;;3.53;2.13;;;;;;;;;;6275089;22;20034;-78
2021/01/23 06:20:41;;;;;;;4.35;2.50;;;;;;;;;;6274924;22;20011;-78
2021/01/23 06:23:07;;;;;;;5.55;2.80;;;;;;;;;;6275038;22;20367;-76
2021/01/23 06:25:51;;;;;;;3.30;2.20;;;;;;;;;;6274394;22;20003;-75
2021/01/23 06:28:17;;;;;;;4.03;2.45;;;;;;;;;;6302179;22;19997;-76
2021/01/23 06:30:43;;;;;;;5.30;3.67;;;;;;;;;;6274671;22;20018;-76
2021/01/23 06:33:25;;;;;;;3.72;2.47;;;;;;;;;;6302537;22;20008;-76
2021/01/23 06:36:10;;;;;;;4.93;2.92;;;;;;;;;;6301565;22;20432;-76
2021/01/23 06:38:36;;;;;;;4.65;3.00;;;;;;;;;;6274597;22;19999;-76
2021/01/23 06:41:21;;;;;;;5.03;3.35;;;;;;;;;;6274591;22;20010;-76
2021/01/23 06:44:06;;;;;;;4.15;2.60;;;;;;;;;;6302183;22;20003;-77
2021/01/23 06:46:32;;;;;;;4.15;2.83;;;;;;;;;;6274217;22;20004;-76
2021/01/23 06:49:05;;;;;;;4.53;3.00;;;;;;;;;;6274135;22;19999;-76
2021/01/23 06:51:31;;;;;;;4.78;2.85;;;;;;;;;;6274881;22;20002;-76
2021/01/23 06:54:16;;;;;;;5.28;3.10;;;;;;;;;;6302133;22;20420;-76
2021/01/23 06:56:43;;;;;;;4.20;2.95;;;;;;;;;;6301298;22;20072;-76
2021/01/23 06:59:22;;;;;;;3.30;2.25;;;;;;;;;;6301961;22;20014;-78
2021/01/23 07:02:09;;;;;;;3.65;2.45;;;;;;;;;;6301668;22;20213;-76
2021/01/23 07:04:36;;;;;;;7.72;2.97;;;;;;;;;;6301462;22;20026;-77
2021/01/23 07:07:02;;;;;;;;;;;;;;;;;;6275157;22;20007;-76
2021/01/23 07:09:46;;;;;;;5.05;3.33;;;;;;;;;;6301267;22;19979;-76
2021/01/23 07:12:13;;;;;;;6.45;3.70;;;;;;;;;;6274508;22;20049;-77
2021/01/23 07:14:39;;;;;;;8.57;4.43;;;;;;;;;;6273499;22;20046;-77
2021/01/23 07:17:12;;;;;;;7.38;4.53;;;;;;;;;;6301606;22;20070;-77
2021/01/23 07:19:39;;;;;;;10.82;7.20;;;;;;;;;;6273976;22;20004;-77
2021/01/23 07:22:05;;;;;;;9.17;6.50;;;;;;;;;;6273151;22;20594;-78
2021/01/23 07:24:33;;;;;;;10.05;6.53;;;;;;;;;;6272844;22;20459;-77
2021/01/23 07:27:00;;;;;;;9.40;6.32;;;;;;;;;;6273924;22;20027;-77
2021/01/23 07:29:26;;;;;;;11.55;6.70;;;;;;;;;;6300822;22;20021;-77
2021/01/23 07:31:55;;;;;;;7.93;6.22;;;;;;;;;;6275288;22;20058;-76
2021/01/23 07:34:21;;;;;;;9.50;6.50;;;;;;;;;;6275560;22;20094;-77
2021/01/23 07:36:47;;;;;;;8.68;5.68;;;;;;;;;;6303590;22;19999;-76
2021/01/23 07:39:14;;;;;;;7.45;5.57;;;;;;;;;;6276445;22;20007;-77
2021/01/23 07:41:41;;;;;;;4.53;3.50;;;;;;;;;;6276335;22;20036;-77
2021/01/23 07:44:09;;;;;;;6.18;4.03;;;;;;;;;;6275737;22;20105;-77
2021/01/23 07:46:37;;;;;;;6.63;4.35;;;;;;;;;;6301789;22;20389;-77
2021/01/23 07:49:03;;;;;;;6.30;4.35;;;;;;;;;;6274104;22;20474;-77
2021/01/23 07:51:31;;;;;;;6.57;4.50;;;;;;;;;;6273769;22;20003;-77
2021/01/23 07:54:10;;;;;;;6.78;4.47;;;;;;;;;;6301248;22;20003;-77
2021/01/23 07:56:37;;;;;;;7.35;4.50;;;;;;;;;;6300749;22;20003;-77
2021/01/23 07:59:03;;;;;;;8.55;4.13;;;;;;;;;;6301052;22;20301;-77
2021/01/23 08:01:29;;;;;;;5.90;3.80;;;;;;;;;;6301343;22;20011;-77
2021/01/23 08:03:55;;;;;;;6.57;4.20;;;;;;;;;;6301709;22;20129;-77
2021/01/23 08:06:25;;;;;;;8.40;4.60;;;;;;;;;;6300428;22;19995;-77
2021/01/23 08:08:51;;;;;;;7.53;4.60;;;;;;;;;;6301282;22;20001;-77
2021/01/23 08:11:53;;;;;;;8.60;5.32;;;;;;;;;;6273001;22;20003;-77
2021/01/23 08:14:19;;;;;;;6.93;4.13;;;;;;;;;;6121427;23;20021;-78
2021/01/23 08:16:52;;;;;;;7.10;5.05;;;;;;;;;;6242745;22;20007;-77
2021/01/23 08:19:18;;;;;;;5.55;4.15;;;;;;;;;;6273611;22;20007;-76
2021/01/23 08:21:44;;;;;;;6.90;4.05;;;;;;;;;;6272901;22;20011;-77
2021/01/23 08:24:40;;;;;;;7.78;4.78;;;;;;;;;;6301187;22;20006;-76
2021/01/23 08:27:16;;;;;;;18.90;11.45;;;;;;;;;;6242366;22;20625;-77
2021/01/23 08:29:42;;;;;;;9.82;6.32;;;;;;;;;;6273478;22;20400;-76
2021/01/23 08:32:08;;;;;;;8.85;6.07;;;;;;;;;;6273344;22;20014;-77
2021/01/23 08:34:34;;;;;;;6.90;4.97;;;;;;;;;;6299392;22;20459;-77
2021/01/23 08:37:01;;;;;;;7.85;5.00;;;;;;;;;;6272818;22;20003;-77
2021/01/23 08:39:27;;;;;;;9.93;4.75;;;;;;;;;;6273232;22;20060;-77
2021/01/23 08:41:53;;;;;;;14.40;7.15;;;;;;;;;;6300809;22;20025;-77
2021/01/23 08:44:19;;;;;;;10.10;5.80;;;;;;;;;;6300260;22;20407;-75
2021/01/23 08:46:45;;;;;;;12.10;5.65;;;;;;;;;;6300910;22;20297;-77
2021/01/23 08:49:11;;;;;;;7.70;4.28;;;;;;;;;;6273338;22;20424;-77
2021/01/23 08:51:37;;;;;;;6.03;4.05;;;;;;;;;;6272311;22;20455;-76
2021/01/23 08:54:04;;;;;;;6.53;3.97;;;;;;;;;;6300933;22;20003;-77
2021/01/23 08:56:30;;;;;;;6.35;4.30;;;;;;;;;;6272706;22;20003;-77
2021/01/23 08:58:56;;;;;;;6.53;4.28;;;;;;;;;;6272886;22;20015;-77
2021/01/23 09:01:22;;;;;;;8.93;4.70;;;;;;;;;;6272950;22;20423;-76
2021/01/23 09:03:48;;;;;;;8.57;4.80;;;;;;;;;;6300629;22;19999;-78
2021/01/23 09:06:14;;;;;;;7.43;4.13;;;;;;;;;;6299051;22;20655;-77
2021/01/23 09:08:40;;;;;;;7.88;4.47;;;;;;;;;;6273286;22;19999;-78
2021/01/23 09:11:06;;;;;;;6.13;4.05;;;;;;;;;;6300523;22;20048;-78
2021/01/23 09:13:32;;;;;;;6.60;3.63;;;;;;;;;;6272807;22;20033;-77
2021/01/23 09:15:58;;;;;;;7.70;3.38;;;;;;;;;;6299689;22;20029;-77
2021/01/23 09:18:24;;;;;;;5.68;3.28;;;;;;;;;;6300983;22;20512;-78
2021/01/23 09:20:50;;;;;;;7.28;3.20;;;;;;;;;;6300063;22;20035;-78
2021/01/23 09:23:16;;;;;;;5.55;3.17;;;;;;;;;;6300443;22;20003;-76
2021/01/23 09:25:42;;;;;;;9.88;4.03;;;;;;;;;;6272544;22;20007;-77
2021/01/23 09:28:10;;;;;;;7.85;4.20;;;;;;;;;;6300431;22;20023;-77
2021/01/23 09:30:36;;;;;;;8.05;4.82;;;;;;;;;;6300682;22;20292;-78
2021/01/23 09:33:02;;;;;;;8.73;4.50;;;;;;;;;;6272962;22;20513;-77
2021/01/23 09:35:28;;;;;;;8.07;4.68;;;;;;;;;;6272185;22;20026;-78
2021/01/23 09:37:54;;;;;;;9.68;4.82;;;;;;;;;;6273027;22;20021;-78
2021/01/23 09:40:20;;;;;;;8.93;4.40;;;;;;;;;;6300118;22;20000;-79
2021/01/23 09:42:46;;;;;;;5.45;3.67;;;;;;;;;;6272432;22;20521;-78
2021/01/23 09:45:13;;;;;;;7.10;3.85;;;;;;;;;;6300038;22;20629;-78
2021/01/23 09:47:39;;;;;;;6.20;3.90;;;;;;;;;;6274751;22;20003;-78
2021/01/23 09:50:05;;;;;;;7.65;3.70;;;;;;;;;;6301706;22;20098;-78
2021/01/23 09:52:31;;;;;;;6.57;4.10;;;;;;;;;;6301806;22;20055;-78
2021/01/23 09:54:57;;;;;;;5.18;3.40;;;;;;;;;;6301346;22;20078;-77
2021/01/23 09:57:23;;;;;;;7.05;3.70;;;;;;;;;;6274501;22;20433;-78
2021/01/23 09:59:49;;;;;;;6.72;3.50;;;;;;;;;;6274837;22;20018;-79
2021/01/23 10:02:15;;;;;;;4.95;2.75;;;;;;;;;;6274715;22;20139;-78
2021/01/23 10:04:41;;;;;;;6.22;3.15;;;;;;;;;;6300048;22;20006;-78
2021/01/23 10:07:07;;;;;;;5.22;3.28;;;;;;;;;;6301456;22;20000;-76
2021/01/23 10:09:34;;;;;;;5.20;3.38;;;;;;;;;;6271502;22;20367;-76
2021/01/23 10:12:00;;;;;;;5.07;3.55;;;;;;;;;;6275277;22;20035;-80
2021/01/23 10:14:26;;;;;;;8.43;3.60;;;;;;;;;;6276190;22;20337;-78
2021/01/23 10:16:53;;;;;;;6.90;4.47;;;;;;;;;;6275864;22;20003;-80
2021/01/23 10:19:19;;;;;;;7.20;4.55;;;;;;;;;;6275151;22;20063;-79
2021/01/23 10:21:45;;;;;;;8.70;4.78;;;;;;;;;;6302022;22;20126;-78
2021/01/23 10:24:11;;;;;;;6.40;4.18;;;;;;;;;;6273064;22;20007;-79
2021/01/23 10:26:37;;;;;;;6.90;4.10;;;;;;;;;;6273707;22;20010;-80
2021/01/23 10:29:03;;;;;;;5.72;3.47;;;;;;;;;;6273479;22;20074;-80
2021/01/23 10:31:29;;;;;;;5.63;3.50;;;;;;;;;;6275214;22;20020;-80
2021/01/23 10:33:55;;;;;;;6.55;3.58;;;;;;;;;;6275463;22;20000;-80
2021/01/23 10:36:21;;;;;;;8.15;3.70;;;;;;;;;;6276054;22;20003;-81
2021/01/23 10:38:47;;;;;;;7.93;4.05;;;;;;;;;;6285876;22;20010;-82
2021/01/23 10:41:14;;;;;;;5.30;3.50;;;;;;;;;;6285011;22;20003;-83
2021/01/23 10:43:40;;;;;;;6.25;3.65;;;;;;;;;;6293017;22;20003;-80
2021/01/23 10:46:06;;;;;;;5.93;3.38;;;;;;;;;;6289537;22;20003;-79
2021/01/23 10:48:32;;;;;;;6.05;3.83;;;;;;;;;;6293166;22;20018;-82
2021/01/23 10:50:59;;;;;;;8.02;3.80;;;;;;;;;;6326783;22;20023;-78
2021/01/23 10:53:25;;;;;;;7.72;3.97;;;;;;;;;;6332449;22;20002;-78
2021/01/23 10:55:51;;;;;;;9.48;4.10;;;;;;;;;;6331718;22;20683;-79
2021/01/23 10:58:17;;;;;;;5.75;3.97;;;;;;;;;;6332214;22;20017;-78
2021/01/23 11:00:43;;;;;;;6.05;3.97;;;;;;;;;;6332222;22;20002;-78
2021/01/23 11:03:09;;;;;;;6.70;3.67;;;;;;;;;;6332649;22;20013;-77
2021/01/23 11:05:36;;;;;;;9.25;4.22;;;;;;;;;;6331623;22;20006;-79
2021/01/23 11:08:02;;;;;;;6.93;3.78;;;;;;;;;;6332720;22;20003;-78
2021/01/23 11:10:28;;;;;;;6.63;3.65;;;;;;;;;;6333584;22;19995;-76
2021/01/23 11:12:54;;;;;;;5.60;3.25;;;;;;;;;;6332638;22;20018;-78
2021/01/23 11:15:20;;;;;;;7.45;3.58;;;;;;;;;;6330465;22;20010;-78
2021/01/23 11:17:46;;;;;;;5.32;3.65;;;;;;;;;;6331082;22;20003;-79
2021/01/23 11:20:13;;;;;;;5.53;3.38;;;;;;;;;;6331798;22;19999;-80
2021/01/23 11:22:39;;;;;;;6.72;3.75;;;;;;;;;;6330517;22;20003;-80
2021/01/23 11:25:05;;;;;;;5.35;3.00;;;;;;;;;;6329639;22;20003;-80
2021/01/23 11:27:31;;;;;;;7.78;3.45;;;;;;;;;;6330300;22;20090;-80
2021/01/23 11:29:57;;;;;;;7.53;3.65;;;;;;;;;;6330534;22;20449;-80
2021/01/23 11:32:23;;;;;;;5.93;3.35;;;;;;;;;;6332313;22;20150;-80
2021/01/23 11:34:49;;;;;;;5.43;3.30;;;;;;;;;;6329540;22;20007;-80
2021/01/23 11:37:15;;;;;;;4.65;3.10;;;;;;;;;;6332494;22;20010;-80
2021/01/23 11:39:41;;;;;;;6.45;3.70;;;;;;;;;;6329892;22;20007;-79
2021/01/23 11:42:07;;;;;;;5.18;3.60;;;;;;;;;;6330560;22;20033;-81
2021/01/23 11:44:33;;;;;;;6.53;3.60;;;;;;;;;;6330618;22;20007;-78
2021/01/23 11:46:59;;;;;;;6.75;3.50;;;;;;;;;;6334478;22;20368;-78
2021/01/23 11:49:25;;;;;;;7.15;3.80;;;;;;;;;;6335126;22;20035;-77
2021/01/23 11:51:51;;;;;;;6.90;3.40;;;;;;;;;;6338834;22;20002;-78
2021/01/23 11:54:17;;;;;;;5.78;3.60;;;;;;;;;;6338612;22;20010;-78
2021/01/23 11:56:44;;;;;;;6.10;3.90;;;;;;;;;;6367939;22;20085;-78
2021/01/23 11:59:10;;;;;;;5.68;3.90;;;;;;;;;;6366368;22;20059;-79
2021/01/23 12:01:36;;;;;;;5.15;3.55;;;;;;;;;;6367167;22;20003;-79
2021/01/23 12:04:02;;;;;;;7.25;3.90;;;;;;;;;;6338290;22;20089;-78
2021/01/23 12:06:28;;;;;;;7.25;3.97;;;;;;;;;;6365156;22;20002;-78
2021/01/23 12:08:54;;;;;;;8.98;4.65;;;;;;;;;;6365723;22;19998;-78
2021/01/23 12:11:20;;;;;;;10.20;5.53;;;;;;;;;;6337254;22;20581;-76
2021/01/23 12:13:46;;;;;;;8.77;4.35;;;;;;;;;;6340148;22;20002;-80
2021/01/23 12:16:12;;;;;;;8.00;5.03;;;;;;;;;;6338894;22;19999;-80
2021/01/23 12:18:38;;;;;;;7.80;4.70;;;;;;;;;;6338808;22;20093;-79
2021/01/23 12:21:04;;;;;;;8.57;4.90;;;;;;;;;;6339122;22;20405;-79
2021/01/23 12:23:30;;;;;;;7.70;4.70;;;;;;;;;;6338853;22;20056;-77
2021/01/23 12:25:56;;;;;;;5.53;3.95;;;;;;;;;;6365578;22;20034;-79
2021/01/23 12:28:22;;;;;;;6.85;4.32;;;;;;;;;;6340539;22;20304;-79
2021/01/23 12:30:48;;;;;;;6.28;4.10;;;;;;;;;;6340302;22;20025;-81
2021/01/23 12:33:14;;;;;;;7.05;5.07;;;;;;;;;;6341729;22;19998;-80
2021/01/23 12:35:40;;;;;;;7.53;4.53;;;;;;;;;;6338077;22;20006;-80
2021/01/23 12:38:07;;;;;;;11.50;5.00;;;;;;;;;;6340475;22;20022;-83
2021/01/23 12:40:33;;;;;;;6.32;4.05;;;;;;;;;;6340079;22;20051;-80
2021/01/23 12:42:59;;;;;;;9.43;4.35;;;;;;;;;;6366101;22;20053;-79
2021/01/23 12:45:25;;;;;;;13.35;5.00;;;;;;;;;;6338064;22;20328;-79
2021/01/23 12:47:51;;;;;;;13.95;5.85;;;;;;;;;;6338498;22;20330;-79
2021/01/23 12:50:17;;;;;;;14.43;5.15;;;;;;;;;;6338596;22;20086;-77
2021/01/23 12:52:44;;;;;;;7.32;4.72;;;;;;;;;;6337566;22;20041;-79
2021/01/23 12:55:11;;;;;;;6.90;4.33;;;;;;;;;;6363324;22;20009;-80
2021/01/23 12:57:40;;;;;;;8.77;5.18;;;;;;;;;;6336022;22;20009;-80
2021/01/23 13:00:07;;;;;;;9.27;5.03;;;;;;;;;;6335066;22;20061;-79
2021/01/23 13:02:33;;;;;;;9.23;4.77;;;;;;;;;;6335095;22;20055;-79
2021/01/23 13:04:59;;;;;;;8.32;4.70;;;;;;;;;;6334187;22;20572;-79
2021/01/23 13:07:25;;;;;;;10.35;4.57;;;;;;;;;;6335049;22;20005;-77
2021/01/23 13:09:51;;;;;;;7.78;4.38;;;;;;;;;;6335131;22;20003;-78
2021/01/23 13:12:18;;;;;;;6.50;4.57;;;;;;;;;;6364115;22;20023;-79
2021/01/23 13:14:45;;;;;;;10.00;5.35;;;;;;;;;;6338732;22;20328;-78
2021/01/23 13:17:11;;;;;;;8.50;4.65;;;;;;;;;;6339032;22;20002;-79
2021/01/23 13:19:37;;;;;;;8.10;5.28;;;;;;;;;;6366084;22;20457;-78
2021/01/23 13:22:03;;;;;;;13.90;7.22;;;;;;;;;;6338754;22;20002;-79
2021/01/23 13:24:29;;;;;;;11.55;5.30;;;;;;;;;;6338613;22;20013;-78
2021/01/23 13:26:55;;;;;;;14.23;5.40;;;;;;;;;;6337469;22;20009;-78
2021/01/23 13:29:21;;;;;;;10.20;5.07;;;;;;;;;;6337659;22;20037;-77
2021/01/23 13:31:48;;;;;;;9.85;5.15;;;;;;;;;;6338299;22;20002;-79
2021/01/23 13:34:14;;;;;;;10.30;6.33;;;;;;;;;;6338557;22;20002;-78
2021/01/23 13:36:41;;;;;;;9.30;5.90;;;;;;;;;;6338383;22;20235;-80
2021/01/23 13:39:09;;;;;;;10.97;5.23;;;;;;;;;;6366284;22;20013;-79
2021/01/23 13:41:35;;;;;;;8.75;5.18;;;;;;;;;;6344320;22;20021;-79
2021/01/23 13:44:03;;;;;;;9.75;6.00;;;;;;;;;;6341073;22;20342;-79
2021/01/23 13:46:29;;;;;;;11.30;6.50;;;;;;;;;;6364975;22;20445;-81
2021/01/23 13:48:55;;;;;;;10.20;5.90;;;;;;;;;;6337367;22;20131;-79
2021/01/23 13:51:21;;;;;;;11.40;6.93;;;;;;;;;;6337827;22;20090;-79
2021/01/23 13:53:47;;;;;;;9.20;4.45;;;;;;;;;;6337647;22;20155;-80
2021/01/23 13:56:13;;;;;;;12.30;5.85;;;;;;;;;;6338296;22;20013;-79
2021/01/23 13:58:39;;;;;;;8.25;4.90;;;;;;;;;;6364483;22;20077;-79
2021/01/23 14:01:07;;;;;;;12.60;7.78;;;;;;;;;;6338482;22;20032;-80
2021/01/23 14:03:33;;;;;;;10.55;5.38;;;;;;;;;;6366324;22;20030;-79
2021/01/23 14:05:59;;;;;;;9.93;4.50;;;;;;;;;;6338531;22;19999;-80
2021/01/23 14:08:25;;;;;;;6.57;4.32;;;;;;;;;;6339095;22;20482;-80
2021/01/23 14:10:52;;;;;;;6.63;4.40;;;;;;;;;;6336903;22;19995;-80
2021/01/23 14:13:18;;;;;;;29.95;13.23;;;;;;;;;;6337147;22;20002;-79
2021/01/23 14:15:44;;;;;;;21.38;11.68;;;;;;;;;;6336451;22;20030;-79
2021/01/23 14:18:10;;;;;;;12.13;6.78;;;;;;;;;;6337037;22;20431;-79
2021/01/23 14:20:36;;;;;;;11.45;6.93;;;;;;;;;;6336497;22;20002;-80
2021/01/23 14:23:02;;;;;;;14.10;8.60;;;;;;;;;;6365279;22;20327;-78
2021/01/23 14:25:28;;;;;;;19.65;10.65;;;;;;;;;;6336467;22;19998;-80
2021/01/23 14:27:54;;;;;;;11.27;6.55;;;;;;;;;;6364860;22;19995;-80
2021/01/23 14:30:21;;;;;;;8.63;5.32;;;;;;;;;;6364533;22;20069;-80
2021/01/23 14:32:47;;;;;;;7.85;4.97;;;;;;;;;;6337183;22;20085;-79
2021/01/23 14:35:13;;;;;;;17.42;10.55;;;;;;;;;;6364691;22;20397;-79
2021/01/23 14:37:39;;;;;;;15.32;7.90;;;;;;;;;;6337104;22;20079;-80
2021/01/23 14:40:06;;;;;;;12.30;7.13;;;;;;;;;;6338751;22;20002;-79
2021/01/23 14:42:32;;;;;;;9.88;6.03;;;;;;;;;;6340576;22;20014;-79
2021/01/23 14:44:59;;;;;;;10.35;5.60;;;;;;;;;;6341723;22;20368;-80